createdAt,value
2023-10-31T00:05:27.380Z,6.1
2023-10-31T00:11:18.572Z,5.9
2023-10-31T00:17:21.364Z,5.8
2023-10-31T00:23:13.659Z,5.8
2023-10-31T00:29:05.180Z,5.6
2023-10-31T00:34:57.372Z,5.6
2023-10-31T00:40:49.987Z,5.5
2023-10-31T00:46:27.098Z,5.4
2023-10-31T00:52:03.843Z,5.4
2023-10-31T00:57:40.238Z,5.3
2023-10-31T01:03:16.658Z,5.3
2023-10-31T01:09:08.401Z,5.2
2023-10-31T01:14:45.290Z,5.2
2023-10-31T01:20:36.982Z,5.1
2023-10-31T01:26:13.870Z,5.1
2023-10-31T01:32:20.490Z,5.1
2023-10-31T01:37:59.508Z,5.1
2023-10-31T01:43:50.933Z,5
2023-10-31T01:49:43.078Z,4.9
2023-10-31T01:55:35.259Z,4.9
2023-10-31T02:01:11.143Z,4.8
2023-10-31T02:07:03.963Z,4.7
2023-10-31T02:12:55.317Z,4.6
2023-10-31T02:18:46.055Z,4.6
2023-10-31T02:24:38.533Z,4.5
2023-10-31T02:30:30.491Z,4.4
2023-10-31T02:36:22.988Z,4.4
2023-10-31T02:42:15.133Z,4.3
2023-10-31T02:47:51.559Z,4.2
2023-10-31T02:53:42.539Z,4.1
2023-10-31T02:59:34.684Z,4
2023-10-31T03:05:26.669Z,3.9
2023-10-31T03:11:18.025Z,3.9
2023-10-31T03:16:55.129Z,3.8
2023-10-31T03:22:47.288Z,3.7
2023-10-31T03:28:37.770Z,3.6
2023-10-31T03:34:31.151Z,3.6
2023-10-31T03:40:22.937Z,3.5
2023-10-31T03:46:13.937Z,3.4
2023-10-31T03:51:51.099Z,3.4
2023-10-31T03:57:26.794Z,3.3
2023-10-31T04:03:02.929Z,3.3
2023-10-31T04:08:40.299Z,3.3
2023-10-31T04:14:15.822Z,3.2
2023-10-31T04:19:52.819Z,3.2
2023-10-31T04:25:45.226Z,3.1
2023-10-31T04:31:55.011Z,3.1
2023-10-31T04:37:49.548Z,3.1
2023-10-31T04:43:41.884Z,3.1
2023-10-31T04:49:19.256Z,3.1
2023-10-31T04:54:55.941Z,3.1
2023-10-31T05:00:35.744Z,3.1
2023-10-31T05:06:25.900Z,3
2023-10-31T05:12:05.603Z,3.1
2023-10-31T05:17:43.029Z,3
2023-10-31T05:23:20.871Z,3.1
2023-10-31T05:29:13.728Z,3.2
2023-10-31T05:34:51.301Z,3.4
2023-10-31T05:40:43.012Z,3.8
2023-10-31T05:46:20.714Z,4.6
2023-10-31T05:52:13.220Z,6.1
2023-10-31T05:58:05.050Z,7.9
2023-10-31T06:03:57.217Z,10.3
2023-10-31T06:09:50.936Z,13
2023-10-31T06:15:42.524Z,15.8
2023-10-31T06:21:36.020Z,18.8
2023-10-31T06:27:29.766Z,12.1
2023-10-31T06:34:20.119Z,29.9
2023-10-31T06:39:56.443Z,28.7
2023-10-31T06:45:52.599Z,30.5
2023-10-31T06:51:47.289Z,33.3
2023-10-31T06:57:23.114Z,34.6
2023-10-31T07:03:00.867Z,35.6
2023-10-31T07:08:39.610Z,36.5
2023-10-31T07:14:31.262Z,37.4
2023-10-31T07:20:24.251Z,38.4
2023-10-31T07:26:15.374Z,39.3
2023-10-31T07:31:52.012Z,40.2
2023-10-31T07:37:47.183Z,41.1
2023-10-31T07:43:23.683Z,41.9
2023-10-31T07:48:45.505Z,42.8
2023-10-31T07:54:38.625Z,43.6
2023-10-31T08:00:33.413Z,44.5
2023-10-31T08:06:26.097Z,45.4
2023-10-31T08:12:18.908Z,46.3
2023-10-31T08:18:11.264Z,47.2
2023-10-31T08:24:02.464Z,48.1
2023-10-31T08:29:55.114Z,49
2023-10-31T08:35:46.927Z,49.8
2023-10-31T08:41:49.243Z,50.7
2023-10-31T08:47:43.879Z,51.6
2023-10-31T08:53:34.768Z,52.3
2023-10-31T08:59:10.452Z,53.1
2023-10-31T09:05:03.922Z,53.9
2023-10-31T09:10:55.220Z,54.5
2023-10-31T09:16:46.175Z,55.2
2023-10-31T09:22:39.431Z,55.8
2023-10-31T09:28:15.336Z,56.4
2023-10-31T09:34:00.276Z,56.9
2023-10-31T09:39:23.497Z,57.4
2023-10-31T09:45:02.805Z,57.9
2023-10-31T09:50:39.136Z,58.4
2023-10-31T09:56:16.464Z,58.9
2023-10-31T10:01:56.216Z,56.9
2023-10-31T10:07:34.408Z,57.1
2023-10-31T10:13:11.591Z,57.7
2023-10-31T10:19:03.449Z,58
2023-10-31T10:24:41.120Z,57.6
2023-10-31T10:30:26.467Z,58.3
2023-10-31T10:35:48.494Z,58
2023-10-31T10:41:09.319Z,57.9
2023-10-31T10:46:32.531Z,57.7
2023-10-31T10:51:38.614Z,58.3
2023-10-31T10:57:15.451Z,58.1
2023-10-31T11:02:37.589Z,58
2023-10-31T11:07:59.938Z,57.4
2023-10-31T11:13:05.380Z,56.8
2023-10-31T11:18:27.595Z,56.3
2023-10-31T11:23:47.679Z,55.8
2023-10-31T11:29:17.955Z,55.2
2023-10-31T11:34:55.363Z,54.6
2023-10-31T11:40:15.527Z,54.1
2023-10-31T11:45:52.526Z,53.6
2023-10-31T11:51:35.578Z,53.2
2023-10-31T11:56:55.958Z,52.6
2023-10-31T12:02:47.317Z,52.1
2023-10-31T12:08:41.257Z,51.6
2023-10-31T12:14:20.048Z,51.1
2023-10-31T12:19:57.813Z,50.8
2023-10-31T12:25:51.304Z,50.9
2023-10-31T12:31:28.982Z,51.9
2023-10-31T12:37:05.466Z,52.2
2023-10-31T12:42:42.855Z,51.8
2023-10-31T12:48:18.771Z,51.1
2023-10-31T12:53:55.136Z,50.4
2023-10-31T12:59:18.055Z,49.9
2023-10-31T13:04:58.236Z,49.3
2023-10-31T13:10:34.432Z,48.8
2023-10-31T13:16:11.896Z,48.3
2023-10-31T13:21:32.874Z,47.9
2023-10-31T13:26:38.932Z,47.6
2023-10-31T13:32:01.742Z,47.8
2023-10-31T13:37:23.544Z,47.9
2023-10-31T13:42:45.132Z,48.1
2023-10-31T13:48:22.648Z,47.9
2023-10-31T13:53:59.635Z,47.6
2023-10-31T13:59:36.193Z,47.3
2023-10-31T14:05:32.590Z,46.8
2023-10-31T14:11:11.084Z,46.2
2023-10-31T14:16:49.299Z,45.6
2023-10-31T14:22:26.520Z,45.1
2023-10-31T14:28:09.106Z,44.6
2023-10-31T14:33:31.628Z,42.9
2023-10-31T14:38:53.422Z,41.3
2023-10-31T14:44:15.504Z,39.8
2023-10-31T14:49:51.977Z,38.3
2023-10-31T14:55:29.268Z,36.9
2023-10-31T15:00:50.770Z,35.5
2023-10-31T15:06:27.992Z,34.4
2023-10-31T15:11:54.664Z,32.7
2023-10-31T15:17:31.093Z,30.9
2023-10-31T15:23:23.948Z,29.6
2023-10-31T15:29:00.195Z,28.4
2023-10-31T15:34:38.839Z,27.4
2023-10-31T15:40:00.004Z,26.5
2023-10-31T15:46:01.204Z,25.6
2023-10-31T15:51:22.131Z,24.9
2023-10-31T15:56:59.318Z,24.3
2023-10-31T16:02:23.700Z,23.7
2023-10-31T16:07:45.563Z,23.1
2023-10-31T16:13:24.591Z,22.6
2023-10-31T16:19:02.146Z,22.1
2023-10-31T16:24:54.511Z,21.7
2023-10-31T16:30:31.416Z,21.3
2023-10-31T16:35:54.272Z,20.8
2023-10-31T16:41:18.427Z,20.4
2023-10-31T16:47:10.232Z,20.1
2023-10-31T16:52:47.746Z,19.8
2023-10-31T16:57:53.056Z,19.4
2023-10-31T17:03:16.636Z,19.2
2023-10-31T17:08:54.262Z,18.9
2023-10-31T17:14:46.769Z,18.6
2023-10-31T17:20:39.536Z,18.4
2023-10-31T17:26:22.252Z,18.1
2023-10-31T17:32:30.009Z,17.9
2023-10-31T17:38:22.254Z,17.6
2023-10-31T17:43:59.886Z,17.4
2023-10-31T17:49:52.915Z,17.3
2023-10-31T17:55:17.043Z,17.1
2023-10-31T18:00:54.664Z,16.9
2023-10-31T18:06:16.817Z,16.8
2023-10-31T18:11:53.515Z,16.6
2023-10-31T18:17:33.945Z,16.4
2023-10-31T18:23:12.653Z,16.3
2023-10-31T18:29:04.677Z,16.1
2023-10-31T18:34:58.451Z,15.9
2023-10-31T18:41:02.657Z,15.8
2023-10-31T18:47:46.736Z,15.6
2023-10-31T18:53:40.416Z,15.5
2023-10-31T18:59:19.604Z,15.4
2023-10-31T19:04:57.694Z,15.3
2023-10-31T19:10:20.066Z,15.1
2023-10-31T19:15:42.833Z,15.1
2023-10-31T19:21:36.597Z,14.9
2023-10-31T19:27:15.705Z,14.8
2023-10-31T19:32:53.807Z,14.8
2023-10-31T19:38:47.037Z,14.7
2023-10-31T19:44:40.680Z,14.6
2023-10-31T19:50:34.970Z,14.6
2023-10-31T19:56:29.007Z,14.6
2023-10-31T20:02:25.106Z,14.5
2023-10-31T20:08:23.131Z,14.5
2023-10-31T20:14:00.268Z,14.5
2023-10-31T20:20:05.615Z,14.5
2023-10-31T20:25:27.482Z,14.6
2023-10-31T20:31:04.702Z,14.6
2023-10-31T20:36:42.278Z,14.6
2023-10-31T20:42:19.291Z,14.6
2023-10-31T20:47:57.846Z,14.6
2023-10-31T20:53:50.958Z,14.6
2023-10-31T20:59:27.810Z,14.7
2023-10-31T21:04:51.307Z,14.6
2023-10-31T21:10:29.142Z,14.7
2023-10-31T21:16:06.832Z,14.7
2023-10-31T21:21:52.991Z,14.7
2023-10-31T21:27:29.765Z,14.7
2023-10-31T21:33:07.023Z,14.7
2023-10-31T21:39:01.651Z,14.7
2023-10-31T21:44:37.864Z,14.7
2023-10-31T21:50:29.934Z,14.7
2023-10-31T21:56:21.110Z,14.7
2023-10-31T22:02:15.679Z,14.7
2023-10-31T22:08:09.278Z,14.7
2023-10-31T22:13:46.750Z,14.8
2023-10-31T22:19:39.270Z,14.8
2023-10-31T22:25:31.252Z,14.9
2023-10-31T22:31:23.567Z,14.9
2023-10-31T22:37:00.077Z,15.1
2023-10-31T22:42:51.838Z,15.1
2023-10-31T22:48:13.124Z,15.3
2023-10-31T22:53:50.269Z,15.3
2023-10-31T22:59:27.377Z,15.4
2023-10-31T23:05:19.674Z,15.4
2023-10-31T23:11:18.048Z,15.4
2023-10-31T23:16:53.493Z,15.5
2023-10-31T23:22:45.436Z,15.4
2023-10-31T23:28:22.149Z,15.3
2023-10-31T23:34:24.131Z,15.3
2023-10-31T23:40:14.849Z,15.1
2023-10-31T23:45:51.847Z,15
2023-10-31T23:51:12.500Z,14.9
2023-10-31T23:57:04.376Z,14.8
